Time;durP1;ratioP1;P1;durP2;ratioP2;P2;SDS_P1;SDS_P2;PMS_P1;PMS_P2;Temp;Humidity;BMP_temperature;BMP_pressure;BME280_temperature;BME280_humidity;BME280_pressure;Samples;Min_cycle;Max_cycle;Signal;HPM_P1;HPM_P2
2023/06/13 00:06:29;;;;;;;2.87;2.50;;;10.20;99.90;;;;;;5847089;23;20193;-83
2023/06/13 00:31:44;;;;;;;4.13;3.53;;;10.00;99.90;;;;;;5860623;23;20201;-85
2023/06/13 01:02:08;;;;;;;3.20;2.90;;;10.00;99.90;;;;;;5839928;23;20631;-85
2023/06/13 01:27:26;;;;;;;5.63;3.40;;;10.30;99.90;;;;;;5820545;23;20590;-83
2023/06/13 02:13:08;;;;;;;4.80;4.23;;;10.60;99.90;;;;;;5962606;23;20234;-82
2023/06/13 02:38:32;;;;;;;5.13;4.63;;;10.50;99.90;;;;;;5745526;24;20182;-83
2023/06/13 03:19:03;;;;;;;8.97;6.60;;;10.40;99.90;;;;;;5830196;23;20295;-86
2023/06/13 03:44:10;;;;;;;14.33;10.13;;;10.50;99.90;;;;;;5700622;24;20771;-80
2023/06/13 04:35:07;;;;;;;11.17;7.97;;;10.30;99.90;;;;;;5633621;24;20288;-83
2023/06/13 05:00:31;;;;;;;11.70;8.73;;;10.60;99.90;;;;;;5733294;24;20164;-81
2023/06/13 05:20:33;;;;;;;11.13;9.50;;;10.80;99.90;;;;;;5537498;24;20308;-84
2023/06/13 05:46:14;;;;;;;11.37;8.53;;;10.80;99.90;;;;;;5746118;24;20306;-81
2023/06/13 06:11:28;;;;;;;9.50;8.50;;;11.00;99.90;;;;;;5646867;24;20357;-79
2023/06/13 06:42:04;;;;;;;12.37;9.83;;;11.40;99.90;;;;;;5832652;23;20720;-85
2023/06/13 07:07:07;;;;;;;13.50;9.77;;;11.40;99.90;;;;;;5568536;24;20771;-78
2023/06/13 07:27:35;;;;;;;11.07;9.77;;;11.70;99.90;;;;;;5457007;25;20196;-82
2023/06/13 08:13:19;;;;;;;8.57;7.63;;;12.50;99.90;;;;;;5606698;24;20457;-81
2023/06/13 08:48:53;;;;;;;6.03;5.53;;;13.70;99.90;;;;;;5864420;23;20170;-83
2023/06/13 09:19:02;;;;;;;7.97;7.10;;;13.30;99.90;;;;;;5782214;23;20476;-82
2023/06/13 09:49:32;;;;;;;8.87;7.60;;;13.50;99.90;;;;;;5682597;24;20497;-82
2023/06/13 10:14:43;;;;;;;9.13;7.37;;;14.30;99.90;;;;;;5428214;24;20793;-82
2023/06/13 10:35:24;;;;;;;7.80;7.07;;;15.00;99.90;;;;;;5521234;24;20613;-83
2023/06/13 11:51:31;;;;;;;10.30;7.47;;;15.60;99.90;;;;;;5646307;24;20247;-84
2023/06/13 12:47:02;;;;;;;12.80;8.97;;;16.20;98.30;;;;;;5473495;24;20183;-82
2023/06/13 13:48:05;;;;;;;7.90;7.10;;;17.20;93.50;;;;;;5759465;24;20585;-82
2023/06/13 14:54:07;;;;;;;5.70;4.57;;;16.50;96.50;;;;;;5735027;24;21055;-80
2023/06/13 15:14:13;;;;;;;5.77;4.57;;;17.70;90.20;;;;;;5784672;23;20189;-82
2023/06/13 15:49:42;;;;;;;6.33;4.90;;;15.90;98.80;;;;;;5709043;24;20504;-81
2023/06/13 16:15:04;;;;;;;5.90;5.20;;;14.80;99.90;;;;;;5823672;23;20247;-83
2023/06/13 16:40:32;;;;;;;9.73;7.47;;;13.70;99.90;;;;;;5756059;24;20365;-83
2023/06/13 17:10:58;;;;;;;12.90;7.90;;;13.60;99.90;;;;;;5516491;24;20188;-84
2023/06/13 18:21:57;;;;;;;8.17;5.17;;;12.90;99.90;;;;;;5639632;24;20751;-81
2023/06/13 18:52:22;;;;;;;7.73;5.37;;;12.60;99.90;;;;;;5800942;23;20211;-79
2023/06/13 19:17:54;;;;;;;9.03;6.07;;;12.30;99.90;;;;;;5776120;23;20178;-82
2023/06/13 19:22:13;;;;;;;9.13;6.13;;;12.30;99.90;;;;;;5749788;23;20394;-82
2023/06/13 19:42:35;;;;;;;9.93;7.70;;;12.30;99.90;;;;;;5645310;24;20421;-80
2023/06/13 20:07:52;;;;;;;10.67;7.70;;;12.30;99.90;;;;;;5758279;24;20468;-79
2023/06/13 20:54:07;;;;;;;13.50;10.20;;;12.40;99.90;;;;;;5605918;24;20231;-80
2023/06/13 21:19:06;;;;;;;9.40;8.33;;;12.40;99.90;;;;;;5758423;24;20557;-81
2023/06/13 21:39:28;;;;;;;11.50;9.50;;;12.60;99.90;;;;;;5775237;24;20389;-82
2023/06/13 22:40:19;;;;;;;12.93;9.67;;;12.80;99.90;;;;;;5654909;24;20524;-81
2023/06/13 23:00:58;;;;;;;13.90;11.37;;;12.80;99.90;;;;;;5583176;24;20180;-84
2023/06/13 23:05:22;;;;;;;13.00;11.13;;;12.90;99.90;;;;;;5526589;24;20634;-80
2023/06/13 23:36:27;;;;;;;13.90;10.63;;;12.70;99.90;;;;;;5788973;24;20178;-82
